Time;durP1;ratioP1;P1;durP2;ratioP2;P2;SDS_P1;SDS_P2;PMS_P1;PMS_P2;Temp;Humidity;BMP_temperature;BMP_pressure;BME280_temperature;BME280_humidity;BME280_pressure;Samples;Min_cycle;Max_cycle;Signal;HPM_P1;HPM_P2
2022/02/08 00:00:07;;;;;;;;;;;;;;;13.71;45.64;101500.22;4936929;28;111148;-58
2022/02/08 00:02:41;;;;;;;;;;;;;;;13.73;45.34;101517.06;4923367;28;97983;-56
2022/02/08 00:05:09;;;;;;;;;;;;;;;13.73;45.64;101517.06;4922922;28;98136;-56
2022/02/08 00:07:35;;;;;;;;;;;;;;;13.74;45.41;101517.88;4924231;28;97846;-63
2022/02/08 00:10:02;;;;;;;;;;;;;;;13.74;45.68;101518.69;4923301;28;97988;-56
2022/02/08 00:12:28;;;;;;;;;;;;;;;13.76;45.24;101518.44;4922986;28;118923;-64
2022/02/08 00:14:54;;;;;;;;;;;;;;;13.75;45.54;101520.34;4935881;28;127390;-56
2022/02/08 00:17:20;;;;;;;;;;;;;;;13.77;45.42;101527.38;4943415;28;97833;-56
2022/02/08 00:19:46;;;;;;;;;;;;;;;13.78;45.53;101529.00;4942665;28;122087;-56
2022/02/08 00:22:12;;;;;;;;;;;;;;;13.78;45.61;101529.81;4939787;28;98674;-56
2022/02/08 00:24:38;;;;;;;;;;;;;;;13.76;45.36;101529.28;4921970;28;110842;-56
2022/02/08 00:27:06;;;;;;;;;;;;;;;13.79;45.68;101536.03;4922145;28;117992;-64
2022/02/08 00:29:32;;;;;;;;;;;;;;;13.80;45.52;101538.50;4922922;28;99047;-63
2022/02/08 00:31:58;;;;;;;;;;;;;;;13.79;45.60;101541.47;4932346;28;128299;-64
2022/02/08 00:34:23;;;;;;;;;;;;;;;13.78;45.69;101535.22;4938917;28;128452;-56
2022/02/08 00:36:49;;;;;;;;;;;;;;;13.78;45.66;101542.53;4942015;28;116923;-56
2022/02/08 00:39:15;;;;;;;;;;;;;;;13.76;45.37;101545.53;4957359;28;98292;-64
2022/02/08 00:41:41;;;;;;;;;;;;;;;13.75;45.56;101539.31;4940923;28;98429;-58
2022/02/08 00:44:16;;;;;;;;;;;;;;;13.74;45.64;101548.47;4936532;28;126290;-64
2022/02/08 00:46:59;;;;;;;;;;;;;;;13.75;45.39;101542.00;4942763;28;97960;-63
2022/02/08 00:49:32;;;;;;;;;;;;;;;13.74;45.78;101545.78;4942545;28;98284;-63
2022/02/08 00:52:05;;;;;;;;;;;;;;;13.74;45.62;101543.06;4941659;28;98098;-56
2022/02/08 00:54:31;;;;;;;;;;;;;;;13.73;45.54;101535.22;4942592;28;98031;-57
2022/02/08 00:56:57;;;;;;;;;;;;;;;13.74;45.54;101550.38;4940963;28;115510;-63
2022/02/08 00:59:23;;;;;;;;;;;;;;;13.73;45.47;101560.41;4921774;28;129375;-56
2022/02/08 01:01:49;;;;;;;;;;;;;;;13.73;45.49;101555.00;4942072;28;128147;-56
2022/02/08 01:04:15;;;;;;;;;;;;;;;13.73;45.51;101556.88;4924787;28;127824;-63
2022/02/08 01:06:42;;;;;;;;;;;;;;;13.72;45.50;101569.63;4904537;28;115325;-56
2022/02/08 01:09:21;;;;;;;;;;;;;;;13.72;45.84;101572.34;4936718;28;97706;-57
2022/02/08 01:11:52;;;;;;;;;;;;;;;13.73;45.76;101570.44;4925808;28;98217;-56
2022/02/08 01:14:18;;;;;;;;;;;;;;;13.71;45.62;101561.75;4921986;28;97968;-63
2022/02/08 01:16:44;;;;;;;;;;;;;;;13.72;45.33;101561.50;4904118;28;99258;-63
2022/02/08 01:19:11;;;;;;;;;;;;;;;13.71;45.74;101569.88;4921935;28;99271;-63
2022/02/08 01:21:37;;;;;;;;;;;;;;;13.73;45.25;101579.38;4922400;28;98159;-56
2022/02/08 01:24:03;;;;;;;;;;;;;;;13.73;45.72;101570.44;4921079;28;108192;-63
2022/02/08 01:26:31;;;;;;;;;;;;;;;13.73;45.39;101567.72;4921803;28;97834;-56
2022/02/08 01:29:07;;;;;;;;;;;;;;;13.73;45.70;101576.66;4921750;28;97938;-56
2022/02/08 01:31:37;;;;;;;;;;;;;;;13.74;45.41;101567.44;4922507;28;98918;-56
2022/02/08 01:39:19;;;;;;;;;;;;;;;13.77;45.59;101566.13;4940424;28;120379;-56
2022/02/08 01:44:34;;;;;;;;;;;;;;;13.79;45.65;101568.56;4940674;28;98106;-57
2022/02/08 01:47:13;;;;;;;;;;;;;;;13.78;45.62;101562.31;4941449;28;97812;-56
2022/02/08 01:50:01;;;;;;;;;;;;;;;13.79;45.51;101561.25;4922286;28;98362;-56
2022/02/08 01:52:27;;;;;;;;;;;;;;;13.80;45.37;101565.59;4923142;28;98940;-56
2022/02/08 01:54:54;;;;;;;;;;;;;;;13.80;45.61;101565.59;4921759;28;97851;-63
2022/02/08 01:57:20;;;;;;;;;;;;;;;13.81;45.38;101564.53;4921827;28;97829;-56
2022/02/08 01:59:46;;;;;;;;;;;;;;;13.81;45.61;101563.72;4920749;28;120577;-63
2022/02/08 02:02:12;;;;;;;;;;;;;;;13.83;45.48;101564.25;4921302;28;99025;-57
2022/02/08 02:04:37;;;;;;;;;;;;;;;13.82;45.52;101560.72;4920489;28;128553;-64
2022/02/08 02:07:03;;;;;;;;;;;;;;;13.83;45.67;101556.94;4920334;28;118362;-64
2022/02/08 02:09:29;;;;;;;;;;;;;;;13.83;45.65;101550.69;4903485;28;100078;-63
2022/02/08 02:11:56;;;;;;;;;;;;;;;13.83;45.71;101543.38;4904116;28;100199;-64
2022/02/08 02:14:22;;;;;;;;;;;;;;;13.84;45.63;101545.03;4938001;28;97946;-64
2022/02/08 02:19:18;;;;;;;;;;;;;;;13.84;45.50;101534.19;4936104;28;97874;-56
2022/02/08 02:21:43;;;;;;;;;;;;;;;13.85;45.33;101532.28;4906585;28;98176;-63
2022/02/08 02:24:09;;;;;;;;;;;;;;;13.84;45.29;101533.38;4937736;28;126409;-57
2022/02/08 02:26:35;;;;;;;;;;;;;;;13.85;45.40;101535.81;4924306;28;114532;-64
2022/02/08 02:29:01;;;;;;;;;;;;;;;13.85;45.40;101533.09;4925024;28;99146;-56
2022/02/08 02:31:27;;;;;;;;;;;;;;;13.85;45.56;101535.81;4923760;28;113360;-56
2022/02/08 02:33:53;;;;;;;;;;;;;;;13.85;45.63;101533.09;4928282;28;101071;-62
2022/02/08 02:36:19;;;;;;;;;;;;;;;13.86;45.57;101542.03;4944199;28;97839;-56
2022/02/08 02:38:45;;;;;;;;;;;;;;;13.84;45.43;101538.81;4942282;28;129534;-57
2022/02/08 02:41:12;;;;;;;;;;;;;;;13.84;45.45;101531.47;4944253;28;98333;-56
2022/02/08 02:43:40;;;;;;;;;;;;;;;13.83;45.64;101540.66;4943139;28;98885;-64
2022/02/08 02:46:06;;;;;;;;;;;;;;;13.84;45.64;101546.94;4944311;28;97893;-56
2022/02/08 02:48:32;;;;;;;;;;;;;;;13.81;45.48;101545.56;4940863;28;127559;-56
2022/02/08 02:50:58;;;;;;;;;;;;;;;13.81;45.51;101548.25;4942323;28;129668;-64
2022/02/08 02:53:25;;;;;;;;;;;;;;;13.80;45.63;101560.19;4944036;28;97756;-63
2022/02/08 02:55:51;;;;;;;;;;;;;;;13.79;45.30;101544.16;4926591;28;97893;-56
2022/02/08 02:58:19;;;;;;;;;;;;;;;13.76;45.61;101548.25;4935104;28;98535;-56
2022/02/08 03:01:03;;;;;;;;;;;;;;;13.75;45.77;101544.72;4925206;28;99533;-56
2022/02/08 03:03:44;;;;;;;;;;;;;;;13.73;45.63;101555.00;4924270;28;97963;-56
2022/02/08 03:19:37;;;;;;;;;;;;;;;13.67;45.42;101552.50;4930880;28;98226;-56
2022/02/08 03:22:03;;;;;;;;;;;;;;;13.65;45.38;101557.38;4941758;28;128277;-56
2022/02/08 03:24:29;;;;;;;;;;;;;;;13.64;45.39;101558.47;4941564;28;128728;-63
2022/02/08 03:26:56;;;;;;;;;;;;;;;13.63;45.57;101554.09;4957506;28;117321;-64
2022/02/08 03:29:22;;;;;;;;;;;;;;;13.61;45.33;101556.28;4926108;28;98161;-64
2022/02/08 03:31:48;;;;;;;;;;;;;;;13.60;45.72;101560.06;4921512;28;128620;-56
2022/02/08 03:34:13;;;;;;;;;;;;;;;13.59;45.41;101561.13;4925584;28;127802;-63
2022/02/08 03:36:39;;;;;;;;;;;;;;;13.59;45.33;101558.41;4943203;28;117476;-63
2022/02/08 03:39:18;;;;;;;;;;;;;;;13.58;45.28;101551.38;4927449;28;128070;-63
2022/02/08 03:41:52;;;;;;;;;;;;;;;13.57;45.49;101547.84;4923557;28;98916;-56
2022/02/08 03:44:21;;;;;;;;;;;;;;;13.57;45.68;101547.03;4938738;28;98111;-56
2022/02/08 03:46:47;;;;;;;;;;;;;;;13.56;45.60;101527.25;4906332;28;98104;-55
2022/02/08 03:49:13;;;;;;;;;;;;;;;13.56;45.61;101529.97;4923772;28;98440;-63
2022/02/08 03:51:55;;;;;;;;;;;;;;;13.55;45.35;101524.78;4924241;28;97894;-64
2022/02/08 03:54:21;;;;;;;;;;;;;;;13.55;45.55;101520.19;4922587;28;98318;-56
2022/02/08 03:56:47;;;;;;;;;;;;;;;13.56;45.30;101518.28;4923352;28;97797;-56
2022/02/08 03:59:14;;;;;;;;;;;;;;;13.55;45.29;101516.66;4922605;28;99371;-56
2022/02/08 04:02:03;;;;;;;;;;;;;;;13.54;45.48;101510.44;4923102;28;99501;-63
2022/02/08 04:04:38;;;;;;;;;;;;;;;13.54;45.45;101510.44;4922371;28;97868;-56
2022/02/08 04:07:44;;;;;;;;;;;;;;;13.54;45.53;101512.34;4904971;28;97906;-56
2022/02/08 04:10:03;;;;;;;;;;;;;;;13.54;45.43;101510.44;4939508;28;98122;-64
2022/02/08 04:12:56;;;;;;;;;;;;;;;13.54;45.26;101505.03;4938464;28;98688;-56
2022/02/08 04:42:20;;;;;;;;;;;;;;;13.54;45.35;101529.41;4932986;28;98112;-63
2022/02/08 04:44:58;;;;;;;;;;;;;;;13.55;45.28;101531.03;4924858;28;98935;-63
2022/02/08 04:47:31;;;;;;;;;;;;;;;13.56;45.27;101526.41;4924155;28;97780;-63
2022/02/08 04:49:58;;;;;;;;;;;;;;;13.57;44.93;101523.47;4922635;28;97869;-56
2022/02/08 04:52:26;;;;;;;;;;;;;;;13.58;45.11;101521.56;4922534;28;99130;-56
2022/02/08 04:55:02;;;;;;;;;;;;;;;13.58;45.27;101521.56;4922843;28;98243;-56
2022/02/08 04:57:37;;;;;;;;;;;;;;;13.58;45.25;101510.75;4922601;28;98008;-56
2022/02/08 05:34:09;;;;;;;;;;;;;;;13.65;45.07;101468.78;4941228;28;98114;-56
2022/02/08 05:48:27;;;;;;;;;;;;;;;13.67;44.76;101460.38;4929566;28;98667;-56
2022/02/08 05:51:04;;;;;;;;;;;;;;;13.67;44.82;101463.91;4921339;28;97953;-56
2022/02/08 05:53:42;;;;;;;;;;;;;;;13.68;44.79;101459.34;4921457;28;97840;-57
2022/02/08 05:56:14;;;;;;;;;;;;;;;13.68;44.99;101452.00;4919944;28;98597;-56
2022/02/08 05:58:42;;;;;;;;;;;;;;;13.68;44.74;101453.91;4921171;28;97841;-55
2022/02/08 06:01:08;;;;;;;;;;;;;;;13.68;45.08;101449.31;4920533;28;99765;-57
2022/02/08 06:03:34;;;;;;;;;;;;;;;13.68;44.77;101462.84;4921447;28;97759;-56
2022/02/08 06:06:00;;;;;;;;;;;;;;;13.67;44.85;101447.66;4926299;28;99187;-56
2022/02/08 06:08:26;;;;;;;;;;;;;;;13.69;44.76;101450.13;4937680;28;125467;-56
2022/02/08 06:10:58;;;;;;;;;;;;;;;13.69;44.79;101447.41;4938555;28;127576;-56
2022/02/08 06:13:24;;;;;;;;;;;;;;;13.68;44.76;101443.06;4931545;28;97860;-56
2022/02/08 06:15:59;;;;;;;;;;;;;;;13.70;45.13;101447.13;4920439;28;98276;-57
2022/02/08 06:18:26;;;;;;;;;;;;;;;13.70;44.96;101433.59;4921403;28;98599;-56
2022/02/08 06:20:52;;;;;;;;;;;;;;;13.70;44.83;101441.72;4929918;28;113016;-56
2022/02/08 06:23:18;;;;;;;;;;;;;;;13.70;44.71;101439.00;4934252;28;118337;-56
2022/02/08 06:25:44;;;;;;;;;;;;;;;13.70;44.72;101430.06;4935998;28;125941;-56
2022/02/08 06:28:12;;;;;;;;;;;;;;;13.69;44.44;101434.66;4936462;28;128455;-56
2022/02/08 06:30:38;;;;;;;;;;;;;;;13.71;44.72;101445.22;4940061;28;98270;-55
2022/02/08 06:33:05;;;;;;;;;;;;;;;13.71;44.81;101440.63;4939261;28;97892;-56
2022/02/08 06:35:33;;;;;;;;;;;;;;;13.72;44.49;101447.69;4938162;28;99353;-56
2022/02/08 06:38:00;;;;;;;;;;;;;;;13.72;44.68;101449.59;4921852;28;97859;-56
2022/02/08 06:40:26;;;;;;;;;;;;;;;13.72;45.02;101444.97;4919902;28;97890;-56
2022/02/08 06:42:56;;;;;;;;;;;;;;;13.75;44.64;101446.34;4920449;28;98268;-56
2022/02/08 06:45:22;;;;;;;;;;;;;;;13.74;44.56;101433.88;4919318;28;99851;-57
2022/02/08 06:47:51;;;;;;;;;;;;;;;13.75;44.89;101439.03;4921427;28;126815;-56
2022/02/08 06:50:17;;;;;;;;;;;;;;;13.77;44.73;101437.97;4920703;28;98158;-56
2022/02/08 06:52:43;;;;;;;;;;;;;;;13.78;44.84;101442.28;4930574;28;98096;-57
2022/02/08 06:55:09;;;;;;;;;;;;;;;13.78;44.56;101436.88;4921174;28;129062;-63
2022/02/08 06:57:51;;;;;;;;;;;;;;;13.80;44.99;101449.09;4937137;28;99449;-56
2022/02/08 07:00:29;;;;;;;;;;;;;;;13.81;44.86;101447.19;4940523;28;98254;-63
2022/02/08 07:02:55;;;;;;;;;;;;;;;13.81;44.83;101449.91;4940313;28;97898;-63
2022/02/08 07:05:21;;;;;;;;;;;;;;;13.82;44.66;101455.03;4938138;28;98499;-64
2022/02/08 07:07:47;;;;;;;;;;;;;;;13.80;44.89;101451.78;4926455;28;98731;-56
2022/02/08 07:10:13;;;;;;;;;;;;;;;13.81;44.65;101450.72;4923539;28;115815;-63
2022/02/08 07:12:40;;;;;;;;;;;;;;;13.81;45.02;101445.28;4926562;28;97982;-63
2022/02/08 07:15:11;;;;;;;;;;;;;;;13.83;45.18;101445.00;4942756;28;99284;-63
2022/02/08 07:17:37;;;;;;;;;;;;;;;13.82;44.88;101444.19;4940776;28;98595;-63
2022/02/08 07:20:06;;;;;;;;;;;;;;;13.84;44.93;101441.25;4922187;28;127673;-63
2022/02/08 07:22:32;;;;;;;;;;;;;;;13.84;44.93;101433.91;4927259;28;98514;-62
2022/02/08 07:24:58;;;;;;;;;;;;;;;13.86;44.95;101442.59;4941983;28;127070;-63
2022/02/08 07:27:25;;;;;;;;;;;;;;;13.88;45.01;101456.69;4942316;28;98778;-63
2022/02/08 07:29:53;;;;;;;;;;;;;;;13.91;45.20;101458.03;4942251;28;123102;-63
2022/02/08 07:32:27;;;;;;;;;;;;;;;13.92;44.89;101462.41;4943506;28;97730;-63
2022/02/08 07:35:05;;;;;;;;;;;;;;;13.92;45.38;101463.22;4907213;28;98848;-63
2022/02/08 07:37:48;;;;;;;;;;;;;;;13.93;45.17;101461.31;4923491;28;98539;-63
2022/02/08 07:42:59;;;;;;;;;;;;;;;13.99;45.59;101461.09;4934917;28;97888;-63
2022/02/08 07:45:25;;;;;;;;;;;;;;;14.01;45.36;101452.66;4922863;28;121643;-62
2022/02/08 07:47:54;;;;;;;;;;;;;;;14.05;45.50;101452.94;4938614;28;112669;-63
2022/02/08 07:50:20;;;;;;;;;;;;;;;14.04;45.59;101449.44;4930794;28;97834;-63
2022/02/08 07:52:46;;;;;;;;;;;;;;;14.07;45.64;101450.78;4924088;28;97738;-64
2022/02/08 07:55:12;;;;;;;;;;;;;;;14.07;45.47;101445.34;4923041;28;98802;-63
2022/02/08 07:57:39;;;;;;;;;;;;;;;14.08;45.55;101442.41;4916233;28;125066;-63
2022/02/08 08:00:05;;;;;;;;;;;;;;;14.10;45.74;101442.94;4921437;28;128034;-63
2022/02/08 08:02:31;;;;;;;;;;;;;;;14.11;45.89;101444.59;4924587;28;97873;-64
2022/02/08 08:04:58;;;;;;;;;;;;;;;14.14;45.96;101444.03;4917930;28;129127;-63
2022/02/08 08:07:25;;;;;;;;;;;;;;;14.18;45.71;101436.16;4922759;28;99167;-63
2022/02/08 08:09:50;;;;;;;;;;;;;;;14.19;45.61;101435.09;4922943;28;97947;-63
2022/02/08 08:12:16;;;;;;;;;;;;;;;14.22;45.98;101434.56;4923533;28;98190;-63
2022/02/08 08:14:43;;;;;;;;;;;;;;;14.22;46.12;101438.06;4927162;28;127954;-63
2022/02/08 08:19:51;;;;;;;;;;;;;;;14.23;46.14;101430.78;4902706;28;97855;-63
2022/02/08 08:22:20;;;;;;;;;;;;;;;14.23;46.18;101433.50;4920800;28;113840;-63
2022/02/08 08:24:46;;;;;;;;;;;;;;;14.24;46.38;101432.41;4922771;28;97821;-64
2022/02/08 08:27:15;;;;;;;;;;;;;;;14.25;46.19;101425.88;4921240;28;122579;-63
2022/02/08 08:29:44;;;;;;;;;;;;;;;14.28;46.07;101411.78;4953383;28;99659;-64
2022/02/08 08:32:10;;;;;;;;;;;;;;;14.28;46.24;101417.22;4973639;28;118248;-63
2022/02/08 08:34:36;;;;;;;;;;;;;;;14.31;46.47;101407.75;4941917;28;98509;-64
2022/02/08 08:37:03;;;;;;;;;;;;;;;14.42;46.29;101412.06;4942598;28;98599;-62
2022/02/08 08:39:37;;;;;;;;;;;;;;;14.42;46.14;101420.19;4941731;28;111097;-64
2022/02/08 08:52:35;;;;;;;;;;;;;;;14.68;45.90;101421.06;4922700;28;97735;-63
2022/02/08 08:55:02;;;;;;;;;;;;;;;14.74;46.00;101417.28;4936386;28;98056;-64
2022/02/08 08:57:28;;;;;;;;;;;;;;;14.78;46.17;101420.28;4922135;28;99813;-63
2022/02/08 08:59:54;;;;;;;;;;;;;;;14.88;45.82;101417.53;4920163;28;98583;-64
2022/02/08 09:02:20;;;;;;;;;;;;;;;14.89;46.25;101411.81;4921887;28;104131;-64
2022/02/08 09:04:48;;;;;;;;;;;;;;;14.91;46.11;101411.56;4921777;28;98283;-63
2022/02/08 09:07:15;;;;;;;;;;;;;;;14.99;46.11;101405.56;4921968;28;98461;-63
2022/02/08 09:09:45;;;;;;;;;;;;;;;15.03;45.92;101403.13;4936973;28;97749;-64
2022/02/08 09:15:31;;;;;;;;;;;;;;;15.18;46.16;101389.53;4889850;28;98911;-63
2022/02/08 09:23:09;;;;;;;;;;;;;;;15.52;45.97;101380.69;4937183;28;97965;-64
2022/02/08 09:28:39;;;;;;;;;;;;;;;15.60;46.24;101378.25;4938643;28;98331;-64
2022/02/08 09:31:07;;;;;;;;;;;;;;;15.58;46.37;101376.88;4939955;28;97805;-64
2022/02/08 09:33:33;;;;;;;;;;;;;;;15.51;46.44;101388.03;4941454;28;97870;-63
2022/02/08 09:35:59;;;;;;;;;;;;;;;15.42;46.70;101390.53;4936122;28;98639;-63
2022/02/08 09:38:29;;;;;;;;;;;;;;;15.37;46.89;101389.75;4939726;28;127331;-63
2022/02/08 09:40:57;;;;;;;;;;;;;;;15.36;46.70;101383.47;4922951;28;98616;-63
2022/02/08 09:43:23;;;;;;;;;;;;;;;15.43;47.00;101385.91;4919818;28;98613;-64
2022/02/08 09:45:49;;;;;;;;;;;;;;;15.44;46.79;101376.66;4920329;28;128197;-63
2022/02/08 09:48:25;;;;;;;;;;;;;;;15.38;46.69;101386.75;4922475;28;98281;-64
2022/02/08 09:50:52;;;;;;;;;;;;;;;15.37;47.13;101389.75;4901564;28;98012;-63
2022/02/08 09:53:30;;;;;;;;;;;;;;;15.52;46.89;101389.66;4917987;28;97753;-63
2022/02/08 09:55:56;;;;;;;;;;;;;;;15.52;46.82;101388.84;4941149;28;98275;-63
2022/02/08 09:58:22;;;;;;;;;;;;;;;15.54;46.66;101394.84;4940921;28;97680;-63
2022/02/08 10:00:48;;;;;;;;;;;;;;;15.67;46.91;101394.25;4939742;28;126200;-63
2022/02/08 10:03:19;;;;;;;;;;;;;;;15.71;46.86;101379.00;4939234;28;118567;-63
2022/02/08 10:05:51;;;;;;;;;;;;;;;15.72;46.90;101388.81;4940382;28;98746;-63
2022/02/08 10:08:17;;;;;;;;;;;;;;;15.74;46.80;101392.06;4961751;28;98068;-63
2022/02/08 10:10:43;;;;;;;;;;;;;;;15.76;46.91;101383.59;4920944;28;122860;-63
2022/02/08 10:13:33;;;;;;;;;;;;;;;15.75;47.01;101377.34;4921760;28;97780;-63
2022/02/08 10:21:48;;;;;;;;;;;;;;;15.65;47.27;101380.97;4920462;28;97931;-63
2022/02/08 10:24:17;;;;;;;;;;;;;;;15.62;47.45;101384.19;4921298;28;97961;-63
2022/02/08 10:37:38;;;;;;;;;;;;;;;15.64;47.22;101364.88;4904032;28;98087;-63
2022/02/08 10:38:07;;;;;;;;;;;;;;;15.65;47.09;101361.94;4914189;28;98034;-56
2022/02/08 10:40:38;;;;;;;;;;;;;;;15.68;47.15;101355.13;4935193;28;98656;-56
2022/02/08 10:43:05;;;;;;;;;;;;;;;15.74;47.04;101348.56;4924825;28;98479;-56
2022/02/08 10:45:32;;;;;;;;;;;;;;;15.74;47.02;101355.91;4924866;28;98207;-56
2022/02/08 10:47:59;;;;;;;;;;;;;;;15.76;47.18;101359.13;4926208;28;98209;-56
2022/02/08 10:50:26;;;;;;;;;;;;;;;15.78;47.28;101359.69;4924230;28;98032;-56
2022/02/08 10:52:54;;;;;;;;;;;;;;;15.88;47.00;101357.72;4924089;28;97749;-56
2022/02/08 10:58:01;;;;;;;;;;;;;;;15.99;46.92;101341.34;4927178;28;98550;-63
2022/02/08 11:03:10;;;;;;;;;;;;;;;16.12;47.00;101340.72;4940886;28;98026;-56
2022/02/08 11:05:43;;;;;;;;;;;;;;;16.26;46.94;101349.84;4906728;28;98007;-56
2022/02/08 11:18:31;;;;;;;;;;;;;;;16.53;46.99;101359.41;4933809;28;98260;-56
2022/02/08 11:24:29;;;;;;;;;;;;;;;16.53;46.90;101364.88;4865900;28;98621;-63
2022/02/08 11:27:05;;;;;;;;;;;;;;;16.54;46.72;101363.75;4863190;28;98113;-63
2022/02/08 11:29:39;;;;;;;;;;;;;;;16.57;46.73;101365.91;4864584;28;98456;-63
2022/02/08 11:32:24;;;;;;;;;;;;;;;16.66;46.55;101364.19;4922727;28;98466;-55
2022/02/08 11:46:11;;;;;;;;;;;;;;;16.68;46.95;101370.16;4967431;28;97992;-62
2022/02/08 12:07:33;;;;;;;;;;;;;;;16.85;47.28;101348.78;4924089;28;98055;-56
2022/02/08 12:10:05;;;;;;;;;;;;;;;16.82;47.21;101354.84;4922634;28;98703;-56
2022/02/08 12:13:03;;;;;;;;;;;;;;;16.84;47.14;101341.72;4925464;28;98480;-64
2022/02/08 12:35:04;;;;;;;;;;;;;;;16.87;47.33;101281.25;4913398;28;98563;-63
2022/02/08 12:48:58;;;;;;;;;;;;;;;16.79;47.41;101283.81;4945819;28;97955;-63
2022/02/08 12:52:15;;;;;;;;;;;;;;;16.72;47.53;101292.28;4921936;28;98080;-63
2022/02/08 12:54:26;;;;;;;;;;;;;;;16.63;47.76;101291.31;4923138;28;98410;-63
2022/02/08 13:02:22;;;;;;;;;;;;;;;16.48;47.96;101292.25;4921893;28;99093;-56
2022/02/08 13:05:04;;;;;;;;;;;;;;;16.42;47.93;101293.38;4922653;28;97953;-63
2022/02/08 13:17:33;;;;;;;;;;;;;;;16.27;47.95;101291.63;4920315;28;97974;-64
2022/02/08 13:19:41;;;;;;;;;;;;;;;16.22;47.99;101305.25;4922604;28;98782;-63
2022/02/08 14:03:08;;;;;;;;;;;;;;;15.95;47.87;101309.28;4919220;28;98498;-56
2022/02/08 14:08:20;;;;;;;;;;;;;;;15.97;47.54;101300.03;4935432;28;97924;-57
2022/02/08 14:18:37;;;;;;;;;;;;;;;15.98;47.39;101299.75;4940347;28;115910;-64
2022/02/08 14:34:43;;;;;;;;;;;;;;;16.07;47.45;101300.78;4919564;28;97929;-64
2022/02/08 14:37:22;;;;;;;;;;;;;;;16.09;47.37;101292.31;4924451;28;98088;-64
2022/02/08 15:00:01;;;;;;;;;;;;;;;16.04;47.48;101279.59;4920864;28;98270;-63
2022/02/08 15:09:31;;;;;;;;;;;;;;;16.17;47.45;101289.00;4941337;28;116448;-64
2022/02/08 15:12:13;;;;;;;;;;;;;;;16.14;47.40;101279.50;4942675;28;98021;-64
2022/02/08 15:17:11;;;;;;;;;;;;;;;16.10;47.49;101293.94;4942886;28;97652;-56
2022/02/08 15:19:40;;;;;;;;;;;;;;;16.08;47.65;101291.53;4924220;28;99169;-64
2022/02/08 15:22:06;;;;;;;;;;;;;;;16.07;47.30;101289.91;4924519;28;98473;-57
2022/02/08 15:24:32;;;;;;;;;;;;;;;16.05;47.42;101292.09;4939511;28;98129;-63
2022/02/08 15:26:58;;;;;;;;;;;;;;;16.04;47.49;101295.91;4942012;28;98915;-56
2022/02/08 15:29:26;;;;;;;;;;;;;;;16.02;47.58;101291.84;4922971;28;127906;-56
2022/02/08 15:31:54;;;;;;;;;;;;;;;16.01;47.64;101296.47;4921734;28;98469;-56
2022/02/08 15:34:20;;;;;;;;;;;;;;;16.00;47.73;101294.84;4938658;28;97755;-56
2022/02/08 15:36:46;;;;;;;;;;;;;;;15.98;47.58;101294.31;4941432;28;109642;-63
2022/02/08 15:39:12;;;;;;;;;;;;;;;15.98;47.71;101307.09;4967040;28;129039;-56
2022/02/08 15:41:39;;;;;;;;;;;;;;;15.96;47.89;101299.22;4920725;28;128155;-64
2022/02/08 15:44:11;;;;;;;;;;;;;;;15.94;47.62;101304.94;4935957;28;97950;-56
2022/02/08 15:46:37;;;;;;;;;;;;;;;15.93;47.90;101307.94;4941472;28;98873;-64
2022/02/08 15:49:03;;;;;;;;;;;;;;;15.91;47.91;101302.78;4934551;28;98416;-57
2022/02/08 15:51:35;;;;;;;;;;;;;;;15.90;47.69;101301.16;4921248;28;98633;-56
2022/02/08 15:54:11;;;;;;;;;;;;;;;15.88;47.65;101308.78;4921937;28;97899;-56
2022/02/08 16:07:02;;;;;;;;;;;;;;;15.84;47.94;101321.34;4922317;28;98227;-58
2022/02/08 16:12:10;;;;;;;;;;;;;;;15.81;48.00;101324.59;4920689;28;97890;-56
2022/02/08 16:15:05;;;;;;;;;;;;;;;15.81;47.98;101318.34;4921486;28;97997;-57
2022/02/08 16:17:45;;;;;;;;;;;;;;;15.80;48.16;101324.88;4921957;28;98686;-64
2022/02/08 16:25:24;;;;;;;;;;;;;;;15.78;47.82;101336.03;4917560;28;97941;-57
2022/02/08 16:46:08;;;;;;;;;;;;;;;15.75;48.18;101341.22;4906189;28;97963;-56
2022/02/08 16:47:04;;;;;;;;;;;;;;;15.71;47.89;101344.50;4929713;28;97792;-64
2022/02/08 16:57:10;;;;;;;;;;;;;;;15.70;48.13;101358.38;4938443;28;98028;-64
2022/02/08 16:59:38;;;;;;;;;;;;;;;15.69;47.90;101360.28;4967996;28;98692;-56
2022/02/08 17:02:06;;;;;;;;;;;;;;;15.69;48.10;101365.72;4940017;28;99186;-64
2022/02/08 17:04:32;;;;;;;;;;;;;;;15.68;47.94;101369.53;4932990;28;97958;-56
2022/02/08 17:06:59;;;;;;;;;;;;;;;15.68;48.14;101374.16;4921082;28;97911;-64
2022/02/08 17:12:02;;;;;;;;;;;;;;;15.67;48.04;101370.59;4919228;28;98382;-64
2022/02/08 17:19:55;;;;;;;;;;;;;;;15.66;47.88;101381.75;4937110;28;98550;-56
2022/02/08 17:46:33;;;;;;;;;;;;;;;15.63;48.28;101406.75;4938494;28;97830;-64
2022/02/08 17:48:59;;;;;;;;;;;;;;;15.65;48.34;101408.13;4939049;28;97802;-57
2022/02/08 17:51:25;;;;;;;;;;;;;;;15.64;48.19;101403.75;4936937;28;128855;-64
2022/02/08 17:53:51;;;;;;;;;;;;;;;15.65;48.46;101412.75;4928554;28;128015;-56
2022/02/08 17:56:17;;;;;;;;;;;;;;;15.65;47.96;101416.28;4919187;28;127293;-56
2022/02/08 17:58:44;;;;;;;;;;;;;;;15.66;48.23;101417.09;4919977;28;117484;-56
2022/02/08 18:01:10;;;;;;;;;;;;;;;15.64;48.03;101416.50;4926620;28;99358;-57
2022/02/08 18:03:36;;;;;;;;;;;;;;;15.64;48.38;101424.66;4937539;28;127826;-64
2022/02/08 18:06:02;;;;;;;;;;;;;;;15.64;48.18;101424.66;4937659;28;128167;-63
2022/02/08 18:08:28;;;;;;;;;;;;;;;15.64;48.19;101427.38;4938366;28;97953;-63
2022/02/08 18:10:58;;;;;;;;;;;;;;;15.65;48.26;101431.78;4937676;28;99385;-56
2022/02/08 18:13:26;;;;;;;;;;;;;;;15.64;48.14;101430.94;4930642;28;98352;-64
2022/02/08 18:15:52;;;;;;;;;;;;;;;15.64;48.64;101430.94;4919954;28;98792;-64
2022/02/08 18:18:25;;;;;;;;;;;;;;;15.64;48.55;101435.53;4919413;28;117333;-64
2022/02/08 18:27:17;;;;;;;;;;;;;;;15.62;48.65;101433.09;4944148;28;98278;-57
2022/02/08 18:50:17;;;;;;;;;;;;;;;15.62;48.79;101433.09;4934001;28;97939;-64
2022/02/08 18:56:40;;;;;;;;;;;;;;;15.58;49.21;101448.34;4937631;28;98256;-56
2022/02/08 19:07:14;;;;;;;;;;;;;;;15.58;49.24;101450.25;4922631;28;98297;-56
2022/02/08 19:15:16;;;;;;;;;;;;;;;15.58;49.33;101467.38;4955721;28;98521;-64
2022/02/08 19:20:37;;;;;;;;;;;;;;;15.59;49.54;101462.75;4897935;28;98449;-63
2022/02/08 19:23:03;;;;;;;;;;;;;;;15.58;49.50;101461.94;4927357;28;97931;-56
2022/02/08 19:25:28;;;;;;;;;;;;;;;15.59;49.24;101465.47;4922455;28;127403;-56
2022/02/08 19:27:55;;;;;;;;;;;;;;;15.58;49.78;101461.94;4914589;28;128872;-63
2022/02/08 19:30:21;;;;;;;;;;;;;;;15.59;49.76;101470.88;4958768;28;98671;-63
2022/02/08 19:32:47;;;;;;;;;;;;;;;15.60;49.76;101467.06;4929433;28;98243;-63
2022/02/08 19:35:14;;;;;;;;;;;;;;;15.60;49.38;101467.06;4923168;28;121719;-56
2022/02/08 19:37:39;;;;;;;;;;;;;;;15.60;49.88;101472.50;4923693;28;98191;-56
2022/02/08 19:40:06;;;;;;;;;;;;;;;15.60;49.85;101467.06;4906309;28;100870;-56
2022/02/08 19:42:36;;;;;;;;;;;;;;;15.60;49.77;101470.63;4923599;28;97774;-63
2022/02/08 19:45:14;;;;;;;;;;;;;;;15.61;49.66;101469.53;4922321;28;114037;-64
2022/02/08 19:47:40;;;;;;;;;;;;;;;15.60;49.57;101475.22;4937159;28;98323;-56
2022/02/08 19:50:07;;;;;;;;;;;;;;;15.60;49.58;101473.34;4937241;28;111371;-56
2022/02/08 19:52:33;;;;;;;;;;;;;;;15.61;49.58;101482.31;4942962;28;98352;-64
2022/02/08 19:55:19;;;;;;;;;;;;;;;15.62;49.76;101481.22;4942647;28;98399;-56
2022/02/08 19:57:47;;;;;;;;;;;;;;;15.61;49.71;101487.75;4943263;28;98336;-63
2022/02/08 20:00:18;;;;;;;;;;;;;;;15.62;50.07;101492.91;4942057;28;98636;-63
2022/02/08 20:02:48;;;;;;;;;;;;;;;15.61;49.68;101496.72;4943676;28;98120;-63
2022/02/08 20:05:16;;;;;;;;;;;;;;;15.62;49.70;101492.91;4926059;28;98626;-63
2022/02/08 20:07:45;;;;;;;;;;;;;;;15.62;49.76;101506.47;4943400;28;98664;-63
2022/02/08 20:10:12;;;;;;;;;;;;;;;15.63;49.64;101510.81;4941322;28;99377;-56
2022/02/08 20:12:38;;;;;;;;;;;;;;;15.63;49.71;101504.56;4912724;28;97764;-56